Terminal Aerodrome Forecast
Issued by NWS

Home | Current Version | Previous Version | Text Only | Print | Product List | Glossary On
Versions: 1 2 3 4 5 6 7 8 9 10 11 12 13 14 15
964
FTUS41 KCLE 241120
TAFFDY
TAF
KFDY 241120Z 2412/2512 19012KT P6SM OVC250 WS020/23050KT
      TEMPO 2412/2415 -SHRA BKN035
     FM241500 21015G25KT P6SM BKN250
     FM250000 21010G20KT P6SM OVC025
     FM250500 21008KT P6SM OVC035
     FM250900 21004KT P6SM SCT035=

USA.gov is the U.S. government's official web portal to all federal, state and local government web resources and services.